»·PEaware :: QXE2524 KPDX-KSEA

QXE2524 :: KPDX-KSEA

FLIGHT INFORMATION

Flight Status: Arrived
Operator:
Horizon Air
More flights by this operator :: More flights under this callsign
Pilot: Joe M. (18884)
Aircraft: DEHAVILLAND DASH 8 400
(DH8D)
More flights by this aircraft type
Origin: KPDX Portland Intl
United States
Destination: KSEA Seattle-Tacoma Intl
United States
More flights between these airports :: More routes between these airports
Route: +COUGA KRIEG HAWKZ6
File this flight plan on PilotEdge
Remarks:
Altitude:
(Current/Filed)
14,000ft
Speed:
(Current/Filed)
340kts
Departed: 20-Jul-18 01:45 PM
Arrived: 20-Jul-18 02:18 PM
Distance/Time
Traveled:
112nm/0:33
Distance/Time
To Go:
Arrived

Flight Plot

Page will automatically refresh every two minutes.

Flight plan parsing failed; only flown route is shown


Map Options




Map Legend


Flown Route
Filed Route
Departure Airport
Arrival Airport
Navaid (VOR, NDB)
Fix

Horizontal Profiles

Position Reports

Time Latitude Longitude Heading Altitude Ground
Speed
20-Jul-18 13:20 45.584876 -122.589720 27 36ft 0kts
20-Jul-18 13:21 45.584876 -122.589720 27 36ft 0kts
20-Jul-18 13:22 45.584875 -122.589720 27 36ft 0kts
20-Jul-18 13:23 45.584876 -122.589720 27 36ft 0kts
20-Jul-18 13:24 45.584876 -122.589720 27 36ft 0kts
20-Jul-18 13:25 45.584875 -122.589720 27 36ft 0kts
20-Jul-18 13:26 45.584876 -122.589720 27 36ft 0kts
20-Jul-18 13:27 45.584876 -122.589720 27 36ft 0kts
20-Jul-18 13:28 45.584876 -122.589720 27 36ft 0kts
20-Jul-18 13:29 45.584875 -122.589720 27 36ft 0kts
20-Jul-18 13:30 45.584876 -122.589720 27 36ft 0kts
20-Jul-18 13:31 45.584876 -122.589720 27 36ft 0kts
20-Jul-18 13:32 45.584876 -122.589720 28 36ft 0kts
20-Jul-18 13:33 45.584875 -122.589720 27 36ft 0kts
20-Jul-18 13:34 45.584875 -122.589720 27 36ft 0kts
20-Jul-18 13:35 45.584876 -122.589720 27 36ft 0kts
20-Jul-18 13:36 45.584876 -122.589720 28 36ft 0kts
20-Jul-18 13:37 45.584876 -122.589720 27 36ft 0kts
20-Jul-18 13:38 45.584761 -122.589809 28 36ft 2kts
20-Jul-18 13:39 45.584280 -122.590263 86 36ft 1kts
20-Jul-18 13:40 45.584319 -122.590437 121 36ft 0kts
20-Jul-18 13:41 45.584319 -122.590437 121 36ft 0kts
20-Jul-18 13:42 45.582673 -122.586293 117 36ft 14kts
20-Jul-18 13:43 45.581433 -122.583626 165 36ft 0kts
20-Jul-18 13:44 45.581433 -122.583626 165 36ft 0kts
20-Jul-18 13:45 45.581433 -122.583626 165 36ft 0kts
20-Jul-18 13:46 45.581622 -122.586665 301 36ft 66kts
20-Jul-18 13:47 45.602346 -122.643073 298 1384ft 195kts
20-Jul-18 13:48 45.625190 -122.708400 299 3823ft 189kts
20-Jul-18 13:49 45.649958 -122.778782 298 5914ft 219kts
20-Jul-18 13:50 45.693920 -122.819300 14 8621ft 233kts
20-Jul-18 13:51 45.756660 -122.787895 15 11107ft 249kts
20-Jul-18 13:52 45.823368 -122.758571 8 13547ft 260kts
20-Jul-18 13:53 45.903213 -122.734000 8 13994ft 334kts
20-Jul-18 13:54 45.993789 -122.707120 7 13987ft 326kts
20-Jul-18 13:55 46.066484 -122.685142 7 13976ft 320kts
20-Jul-18 13:56 46.152170 -122.689702 348 13981ft 311kts
20-Jul-18 13:57 46.251088 -122.708602 347 13981ft 311kts
20-Jul-18 13:58 46.337528 -122.721551 351 13984ft 325kts
20-Jul-18 13:59 46.426464 -122.725902 353 13582ft 306kts
20-Jul-18 14:00 46.496660 -122.728552 354 13596ft 319kts
20-Jul-18 14:01 46.588019 -122.731820 354 13585ft 333kts
20-Jul-18 14:02 46.679929 -122.735135 354 13566ft 334kts
20-Jul-18 14:03 46.772053 -122.734390 16 13557ft 338kts
20-Jul-18 14:04 46.850423 -122.660467 32 13576ft 330kts
20-Jul-18 14:05 46.919029 -122.583304 33 12859ft 309kts
20-Jul-18 14:06 46.995423 -122.537493 12 11881ft 295kts
20-Jul-18 14:07 47.072844 -122.503317 8 10902ft 288kts
20-Jul-18 14:08 47.148723 -122.487811 2 10846ft 288kts
20-Jul-18 14:09 47.227914 -122.474400 1 10313ft 302kts
20-Jul-18 14:10 47.309931 -122.461812 2 8946ft 275kts
20-Jul-18 14:11 47.383000 -122.455584 357 7566ft 255kts
20-Jul-18 14:12 47.448673 -122.455367 357 6787ft 224kts
20-Jul-18 14:13 47.508686 -122.454614 359 5801ft 216kts
20-Jul-18 14:14 47.564023 -122.445411 45 4816ft 211kts
20-Jul-18 14:15 47.564482 -122.363798 94 3870ft 189kts
20-Jul-18 14:16 47.552564 -122.304387 155 3071ft 150kts
20-Jul-18 14:17 47.511943 -122.307265 184 1497ft 143kts
20-Jul-18 14:18 47.478329 -122.307707 180 795ft 114kts
20-Jul-18 14:19 47.452850 -122.307732 157 419ft 26kts
20-Jul-18 14:20 47.451122 -122.306304 178 414ft 12kts
20-Jul-18 14:21 47.448531 -122.304367 30 401ft 5kts

Navigation Log

Ident Type
Flight plan parsing failed, navigation log unavailable